sensor_id;sensor_type;location;lat;lon;timestamp;P1;durP1;ratioP1;P2;durP2;ratioP2
62977;SDS011;49073;42.352;23.808;2023-08-24T00:01:19;4.63;;;2.17;;
62977;SDS011;49073;42.352;23.808;2023-08-24T00:04:20;4.13;;;3.10;;
62977;SDS011;49073;42.352;23.808;2023-08-24T00:07:20;4.78;;;2.45;;
62977;SDS011;49073;42.352;23.808;2023-08-24T00:10:22;5.60;;;2.70;;
62977;SDS011;49073;42.352;23.808;2023-08-24T00:13:22;3.38;;;2.20;;
62977;SDS011;49073;42.352;23.808;2023-08-24T00:16:23;4.00;;;2.65;;
62977;SDS011;49073;42.352;23.808;2023-08-24T00:19:23;3.38;;;2.25;;
62977;SDS011;49073;42.352;23.808;2023-08-24T00:22:24;2.45;;;2.10;;
62977;SDS011;49073;42.352;23.808;2023-08-24T00:25:24;4.57;;;2.85;;
62977;SDS011;49073;42.352;23.808;2023-08-24T00:28:26;5.18;;;2.95;;
62977;SDS011;49073;42.352;23.808;2023-08-24T00:31:27;3.08;;;2.22;;
62977;SDS011;49073;42.352;23.808;2023-08-24T00:34:28;3.47;;;2.30;;
62977;SDS011;49073;42.352;23.808;2023-08-24T00:37:30;4.32;;;2.33;;
62977;SDS011;49073;42.352;23.808;2023-08-24T00:40:30;4.43;;;2.65;;
62977;SDS011;49073;42.352;23.808;2023-08-24T00:43:32;3.65;;;2.72;;
62977;SDS011;49073;42.352;23.808;2023-08-24T00:46:33;3.72;;;2.30;;
62977;SDS011;49073;42.352;23.808;2023-08-24T00:49:34;3.70;;;2.10;;
62977;SDS011;49073;42.352;23.808;2023-08-24T00:52:38;3.90;;;3.20;;
62977;SDS011;49073;42.352;23.808;2023-08-24T00:55:40;3.63;;;2.50;;
62977;SDS011;49073;42.352;23.808;2023-08-24T00:58:41;4.13;;;2.78;;
62977;SDS011;49073;42.352;23.808;2023-08-24T01:01:42;4.05;;;2.47;;
62977;SDS011;49073;42.352;23.808;2023-08-24T01:04:45;3.17;;;2.40;;
62977;SDS011;49073;42.352;23.808;2023-08-24T01:07:47;3.45;;;2.40;;
62977;SDS011;49073;42.352;23.808;2023-08-24T01:10:48;3.40;;;2.28;;
62977;SDS011;49073;42.352;23.808;2023-08-24T01:14:16;4.13;;;2.35;;
62977;SDS011;49073;42.352;23.808;2023-08-24T01:17:30;2.83;;;2.03;;
62977;SDS011;49073;42.352;23.808;2023-08-24T01:20:32;3.80;;;2.65;;
62977;SDS011;49073;42.352;23.808;2023-08-24T01:23:43;3.60;;;2.22;;
62977;SDS011;49073;42.352;23.808;2023-08-24T01:26:48;6.20;;;2.50;;
62977;SDS011;49073;42.352;23.808;2023-08-24T01:29:51;4.32;;;2.20;;
62977;SDS011;49073;42.352;23.808;2023-08-24T01:32:56;3.30;;;2.17;;
62977;SDS011;49073;42.352;23.808;2023-08-24T01:35:57;4.03;;;3.22;;
62977;SDS011;49073;42.352;23.808;2023-08-24T01:39:14;8.32;;;3.63;;
62977;SDS011;49073;42.352;23.808;2023-08-24T01:42:28;4.18;;;2.85;;
62977;SDS011;49073;42.352;23.808;2023-08-24T01:45:31;4.88;;;3.50;;
62977;SDS011;49073;42.352;23.808;2023-08-24T01:48:33;5.28;;;3.00;;
62977;SDS011;49073;42.352;23.808;2023-08-24T01:51:34;6.68;;;4.65;;
62977;SDS011;49073;42.352;23.808;2023-08-24T01:54:36;6.35;;;3.65;;
62977;SDS011;49073;42.352;23.808;2023-08-24T01:57:36;4.78;;;3.35;;
62977;SDS011;49073;42.352;23.808;2023-08-24T02:00:37;4.57;;;3.47;;
62977;SDS011;49073;42.352;23.808;2023-08-24T02:03:38;5.20;;;3.63;;
62977;SDS011;49073;42.352;23.808;2023-08-24T02:06:41;3.45;;;3.08;;
62977;SDS011;49073;42.352;23.808;2023-08-24T02:09:42;5.68;;;3.47;;
62977;SDS011;49073;42.352;23.808;2023-08-24T02:12:42;6.05;;;4.18;;
62977;SDS011;49073;42.352;23.808;2023-08-24T02:15:43;7.25;;;4.35;;
62977;SDS011;49073;42.352;23.808;2023-08-24T02:18:44;5.65;;;4.22;;
62977;SDS011;49073;42.352;23.808;2023-08-24T02:21:45;5.72;;;3.90;;
62977;SDS011;49073;42.352;23.808;2023-08-24T02:24:46;4.85;;;3.58;;
62977;SDS011;49073;42.352;23.808;2023-08-24T02:27:47;4.68;;;3.72;;
62977;SDS011;49073;42.352;23.808;2023-08-24T02:30:48;7.10;;;3.85;;
62977;SDS011;49073;42.352;23.808;2023-08-24T02:33:49;6.07;;;3.65;;
62977;SDS011;49073;42.352;23.808;2023-08-24T02:36:50;4.28;;;3.22;;
62977;SDS011;49073;42.352;23.808;2023-08-24T02:39:50;3.97;;;3.58;;
62977;SDS011;49073;42.352;23.808;2023-08-24T02:42:51;5.80;;;3.58;;
62977;SDS011;49073;42.352;23.808;2023-08-24T02:45:53;6.65;;;3.88;;
62977;SDS011;49073;42.352;23.808;2023-08-24T02:48:53;4.70;;;3.40;;
62977;SDS011;49073;42.352;23.808;2023-08-24T02:51:54;7.75;;;4.32;;
62977;SDS011;49073;42.352;23.808;2023-08-24T02:54:54;6.03;;;4.05;;
62977;SDS011;49073;42.352;23.808;2023-08-24T02:57:55;5.07;;;3.58;;
62977;SDS011;49073;42.352;23.808;2023-08-24T03:00:55;5.70;;;4.07;;
62977;SDS011;49073;42.352;23.808;2023-08-24T03:03:56;6.93;;;4.20;;
62977;SDS011;49073;42.352;23.808;2023-08-24T03:06:57;5.47;;;3.50;;
62977;SDS011;49073;42.352;23.808;2023-08-24T03:09:58;5.82;;;3.53;;
62977;SDS011;49073;42.352;23.808;2023-08-24T03:12:58;8.40;;;3.70;;
62977;SDS011;49073;42.352;23.808;2023-08-24T03:16:02;9.77;;;4.25;;
62977;SDS011;49073;42.352;23.808;2023-08-24T03:19:05;5.10;;;3.47;;
62977;SDS011;49073;42.352;23.808;2023-08-24T03:22:09;4.88;;;3.97;;
62977;SDS011;49073;42.352;23.808;2023-08-24T03:25:09;13.27;;;4.55;;
62977;SDS011;49073;42.352;23.808;2023-08-24T03:28:10;3.88;;;3.00;;
62977;SDS011;49073;42.352;23.808;2023-08-24T03:31:10;4.80;;;3.40;;
62977;SDS011;49073;42.352;23.808;2023-08-24T03:34:11;25.42;;;4.65;;
62977;SDS011;49073;42.352;23.808;2023-08-24T03:37:11;6.38;;;3.33;;
62977;SDS011;49073;42.352;23.808;2023-08-24T03:40:12;4.70;;;3.88;;
62977;SDS011;49073;42.352;23.808;2023-08-24T03:43:13;21.90;;;4.57;;
62977;SDS011;49073;42.352;23.808;2023-08-24T03:46:13;1.90;;;1.40;;
62977;SDS011;49073;42.352;23.808;2023-08-24T03:49:14;0.70;;;0.70;;
62977;SDS011;49073;42.352;23.808;2023-08-24T03:52:14;1.17;;;0.82;;
62977;SDS011;49073;42.352;23.808;2023-08-24T03:55:15;1.27;;;0.73;;
62977;SDS011;49073;42.352;23.808;2023-08-24T03:58:16;1.65;;;1.42;;
62977;SDS011;49073;42.352;23.808;2023-08-24T04:01:17;0.93;;;0.93;;
62977;SDS011;49073;42.352;23.808;2023-08-24T04:04:17;0.63;;;0.63;;
62977;SDS011;49073;42.352;23.808;2023-08-24T04:07:18;1.42;;;1.33;;
62977;SDS011;49073;42.352;23.808;2023-08-24T04:10:19;0.82;;;0.80;;
62977;SDS011;49073;42.352;23.808;2023-08-24T04:13:21;1.55;;;0.90;;
62977;SDS011;49073;42.352;23.808;2023-08-24T04:16:21;1.33;;;1.08;;
62977;SDS011;49073;42.352;23.808;2023-08-24T04:19:22;1.45;;;0.98;;
62977;SDS011;49073;42.352;23.808;2023-08-24T04:22:22;1.35;;;1.08;;
62977;SDS011;49073;42.352;23.808;2023-08-24T04:25:23;1.50;;;1.02;;
62977;SDS011;49073;42.352;23.808;2023-08-24T04:28:23;1.30;;;1.20;;
62977;SDS011;49073;42.352;23.808;2023-08-24T04:31:24;0.90;;;0.85;;
62977;SDS011;49073;42.352;23.808;2023-08-24T04:34:24;1.08;;;0.55;;
62977;SDS011;49073;42.352;23.808;2023-08-24T04:37:26;0.75;;;0.75;;
62977;SDS011;49073;42.352;23.808;2023-08-24T04:40:26;1.23;;;1.15;;
62977;SDS011;49073;42.352;23.808;2023-08-24T04:43:27;1.55;;;1.45;;
62977;SDS011;49073;42.352;23.808;2023-08-24T04:46:27;1.92;;;1.33;;
62977;SDS011;49073;42.352;23.808;2023-08-24T04:49:29;2.25;;;1.35;;
62977;SDS011;49073;42.352;23.808;2023-08-24T04:52:30;1.05;;;0.93;;
62977;SDS011;49073;42.352;23.808;2023-08-24T04:55:31;1.33;;;1.23;;
62977;SDS011;49073;42.352;23.808;2023-08-24T04:58:32;0.57;;;0.57;;
62977;SDS011;49073;42.352;23.808;2023-08-24T05:01:34;1.13;;;1.02;;
62977;SDS011;49073;42.352;23.808;2023-08-24T05:04:34;0.70;;;0.70;;
62977;SDS011;49073;42.352;23.808;2023-08-24T05:07:36;1.05;;;1.05;;
62977;SDS011;49073;42.352;23.808;2023-08-24T05:10:38;1.20;;;1.20;;
62977;SDS011;49073;42.352;23.808;2023-08-24T05:13:42;1.48;;;1.38;;
62977;SDS011;49073;42.352;23.808;2023-08-24T05:16:43;1.33;;;1.23;;
62977;SDS011;49073;42.352;23.808;2023-08-24T05:19:45;0.93;;;0.85;;
62977;SDS011;49073;42.352;23.808;2023-08-24T05:22:45;2.65;;;1.50;;
62977;SDS011;49073;42.352;23.808;2023-08-24T05:25:46;1.20;;;1.10;;
62977;SDS011;49073;42.352;23.808;2023-08-24T05:28:46;2.00;;;1.77;;
62977;SDS011;49073;42.352;23.808;2023-08-24T05:31:47;1.10;;;1.10;;
62977;SDS011;49073;42.352;23.808;2023-08-24T05:34:47;1.73;;;1.60;;
62977;SDS011;49073;42.352;23.808;2023-08-24T05:37:48;0.82;;;0.82;;
62977;SDS011;49073;42.352;23.808;2023-08-24T05:40:48;0.90;;;0.88;;
62977;SDS011;49073;42.352;23.808;2023-08-24T05:43:49;1.58;;;1.48;;
62977;SDS011;49073;42.352;23.808;2023-08-24T05:46:52;1.27;;;1.17;;
62977;SDS011;49073;42.352;23.808;2023-08-24T05:49:54;1.92;;;1.48;;
62977;SDS011;49073;42.352;23.808;2023-08-24T05:52:55;1.83;;;1.42;;
62977;SDS011;49073;42.352;23.808;2023-08-24T05:55:58;1.23;;;1.08;;
62977;SDS011;49073;42.352;23.808;2023-08-24T05:58:59;3.13;;;1.70;;
62977;SDS011;49073;42.352;23.808;2023-08-24T06:01:59;1.25;;;1.15;;
62977;SDS011;49073;42.352;23.808;2023-08-24T06:05:00;3.38;;;1.67;;
62977;SDS011;49073;42.352;23.808;2023-08-24T06:08:00;1.00;;;1.00;;
62977;SDS011;49073;42.352;23.808;2023-08-24T06:11:01;0.70;;;0.70;;
62977;SDS011;49073;42.352;23.808;2023-08-24T06:14:01;0.80;;;0.80;;
62977;SDS011;49073;42.352;23.808;2023-08-24T06:17:02;2.20;;;2.03;;
62977;SDS011;49073;42.352;23.808;2023-08-24T06:20:03;1.90;;;1.38;;
62977;SDS011;49073;42.352;23.808;2023-08-24T06:23:04;1.50;;;1.40;;
62977;SDS011;49073;42.352;23.808;2023-08-24T06:26:05;2.58;;;1.83;;
62977;SDS011;49073;42.352;23.808;2023-08-24T06:29:06;1.23;;;1.13;;
62977;SDS011;49073;42.352;23.808;2023-08-24T06:32:06;1.80;;;1.42;;
62977;SDS011;49073;42.352;23.808;2023-08-24T06:35:07;3.30;;;1.23;;
62977;SDS011;49073;42.352;23.808;2023-08-24T06:38:07;1.00;;;1.00;;
62977;SDS011;49073;42.352;23.808;2023-08-24T06:41:08;2.78;;;1.85;;
62977;SDS011;49073;42.352;23.808;2023-08-24T06:44:12;1.38;;;1.20;;
62977;SDS011;49073;42.352;23.808;2023-08-24T06:47:12;2.60;;;1.73;;
62977;SDS011;49073;42.352;23.808;2023-08-24T06:50:13;0.70;;;0.70;;
62977;SDS011;49073;42.352;23.808;2023-08-24T06:53:15;0.70;;;0.70;;
62977;SDS011;49073;42.352;23.808;2023-08-24T06:56:15;5.85;;;2.53;;
62977;SDS011;49073;42.352;23.808;2023-08-24T06:59:17;1.25;;;1.15;;
62977;SDS011;49073;42.352;23.808;2023-08-24T07:02:18;1.05;;;0.95;;
62977;SDS011;49073;42.352;23.808;2023-08-24T07:05:19;1.27;;;1.13;;
62977;SDS011;49073;42.352;23.808;2023-08-24T07:08:20;3.97;;;1.40;;
62977;SDS011;49073;42.352;23.808;2023-08-24T07:11:20;0.93;;;0.93;;
62977;SDS011;49073;42.352;23.808;2023-08-24T07:14:21;1.50;;;1.35;;
62977;SDS011;49073;42.352;23.808;2023-08-24T07:17:22;1.98;;;1.45;;
62977;SDS011;49073;42.352;23.808;2023-08-24T07:20:22;1.30;;;1.20;;
62977;SDS011;49073;42.352;23.808;2023-08-24T07:23:23;1.45;;;1.15;;
62977;SDS011;49073;42.352;23.808;2023-08-24T07:26:24;1.98;;;1.55;;
62977;SDS011;49073;42.352;23.808;2023-08-24T07:29:25;2.70;;;1.58;;
62977;SDS011;49073;42.352;23.808;2023-08-24T07:32:26;1.17;;;1.13;;
62977;SDS011;49073;42.352;23.808;2023-08-24T07:35:27;1.58;;;1.35;;
62977;SDS011;49073;42.352;23.808;2023-08-24T07:38:27;2.53;;;1.50;;
62977;SDS011;49073;42.352;23.808;2023-08-24T07:41:28;1.88;;;1.08;;
62977;SDS011;49073;42.352;23.808;2023-08-24T07:44:29;1.52;;;1.42;;
62977;SDS011;49073;42.352;23.808;2023-08-24T07:47:30;3.25;;;2.08;;
62977;SDS011;49073;42.352;23.808;2023-08-24T07:50:31;2.13;;;1.67;;
62977;SDS011;49073;42.352;23.808;2023-08-24T07:53:32;1.15;;;1.02;;
62977;SDS011;49073;42.352;23.808;2023-08-24T07:56:33;1.98;;;1.65;;
62977;SDS011;49073;42.352;23.808;2023-08-24T07:59:34;2.88;;;1.98;;
62977;SDS011;49073;42.352;23.808;2023-08-24T08:02:36;2.63;;;1.63;;
62977;SDS011;49073;42.352;23.808;2023-08-24T08:05:37;1.42;;;1.30;;
62977;SDS011;49073;42.352;23.808;2023-08-24T08:08:39;1.30;;;1.20;;
62977;SDS011;49073;42.352;23.808;2023-08-24T08:11:39;1.63;;;1.52;;
62977;SDS011;49073;42.352;23.808;2023-08-24T08:14:40;2.88;;;1.75;;
62977;SDS011;49073;42.352;23.808;2023-08-24T08:17:40;1.60;;;1.38;;
62977;SDS011;49073;42.352;23.808;2023-08-24T08:20:42;2.50;;;1.75;;
62977;SDS011;49073;42.352;23.808;2023-08-24T08:23:43;3.28;;;1.90;;
62977;SDS011;49073;42.352;23.808;2023-08-24T08:26:44;1.90;;;1.40;;
62977;SDS011;49073;42.352;23.808;2023-08-24T08:29:45;2.60;;;1.77;;
62977;SDS011;49073;42.352;23.808;2023-08-24T08:32:46;1.50;;;1.40;;
62977;SDS011;49073;42.352;23.808;2023-08-24T08:35:46;1.40;;;1.30;;
62977;SDS011;49073;42.352;23.808;2023-08-24T08:38:47;1.65;;;1.55;;
62977;SDS011;49073;42.352;23.808;2023-08-24T08:41:47;1.42;;;1.30;;
62977;SDS011;49073;42.352;23.808;2023-08-24T08:44:49;1.45;;;1.35;;
62977;SDS011;49073;42.352;23.808;2023-08-24T08:47:50;1.20;;;1.10;;
62977;SDS011;49073;42.352;23.808;2023-08-24T08:50:51;1.58;;;1.25;;
62977;SDS011;49073;42.352;23.808;2023-08-24T08:53:56;1.38;;;1.27;;
62977;SDS011;49073;42.352;23.808;2023-08-24T08:56:57;1.98;;;1.10;;
62977;SDS011;49073;42.352;23.808;2023-08-24T08:59:57;2.22;;;1.88;;
62977;SDS011;49073;42.352;23.808;2023-08-24T09:02:58;1.40;;;1.30;;
62977;SDS011;49073;42.352;23.808;2023-08-24T09:05:59;1.90;;;1.70;;
62977;SDS011;49073;42.352;23.808;2023-08-24T09:09:00;1.85;;;1.55;;
62977;SDS011;49073;42.352;23.808;2023-08-24T09:12:01;2.67;;;1.75;;
62977;SDS011;49073;42.352;23.808;2023-08-24T09:15:05;1.60;;;1.38;;
62977;SDS011;49073;42.352;23.808;2023-08-24T09:18:06;1.77;;;1.60;;
62977;SDS011;49073;42.352;23.808;2023-08-24T09:21:08;1.00;;;0.98;;
62977;SDS011;49073;42.352;23.808;2023-08-24T09:24:09;1.67;;;1.58;;
62977;SDS011;49073;42.352;23.808;2023-08-24T09:27:15;1.00;;;0.88;;
62977;SDS011;49073;42.352;23.808;2023-08-24T09:30:18;1.63;;;1.52;;
62977;SDS011;49073;42.352;23.808;2023-08-24T09:33:19;1.65;;;1.55;;
62977;SDS011;49073;42.352;23.808;2023-08-24T09:36:22;2.50;;;1.77;;
62977;SDS011;49073;42.352;23.808;2023-08-24T09:39:23;1.42;;;1.30;;
62977;SDS011;49073;42.352;23.808;2023-08-24T09:42:24;1.35;;;1.25;;
62977;SDS011;49073;42.352;23.808;2023-08-24T09:45:26;1.30;;;1.20;;
62977;SDS011;49073;42.352;23.808;2023-08-24T09:48:26;2.78;;;1.70;;
62977;SDS011;49073;42.352;23.808;2023-08-24T09:51:27;1.10;;;0.98;;
62977;SDS011;49073;42.352;23.808;2023-08-24T09:54:28;1.90;;;1.70;;
62977;SDS011;49073;42.352;23.808;2023-08-24T09:57:36;4.05;;;2.58;;
62977;SDS011;49073;42.352;23.808;2023-08-24T10:00:38;2.30;;;1.52;;
62977;SDS011;49073;42.352;23.808;2023-08-24T10:03:39;1.15;;;1.13;;
62977;SDS011;49073;42.352;23.808;2023-08-24T10:06:40;1.55;;;1.45;;
62977;SDS011;49073;42.352;23.808;2023-08-24T10:09:45;3.38;;;1.30;;
62977;SDS011;49073;42.352;23.808;2023-08-24T10:12:56;3.65;;;1.80;;
62977;SDS011;49073;42.352;23.808;2023-08-24T10:15:59;1.25;;;1.15;;
62977;SDS011;49073;42.352;23.808;2023-08-24T10:19:00;1.58;;;1.33;;
62977;SDS011;49073;42.352;23.808;2023-08-24T10:22:02;1.98;;;1.65;;
62977;SDS011;49073;42.352;23.808;2023-08-24T10:25:03;1.55;;;1.25;;
62977;SDS011;49073;42.352;23.808;2023-08-24T10:28:05;2.53;;;2.17;;
62977;SDS011;49073;42.352;23.808;2023-08-24T10:31:07;1.27;;;1.17;;
62977;SDS011;49073;42.352;23.808;2023-08-24T10:34:08;1.70;;;1.58;;
62977;SDS011;49073;42.352;23.808;2023-08-24T10:37:10;3.50;;;2.38;;
62977;SDS011;49073;42.352;23.808;2023-08-24T10:40:12;2.33;;;1.38;;
62977;SDS011;49073;42.352;23.808;2023-08-24T10:43:13;1.65;;;1.55;;
62977;SDS011;49073;42.352;23.808;2023-08-24T10:46:14;1.30;;;0.85;;
62977;SDS011;49073;42.352;23.808;2023-08-24T10:49:18;1.25;;;1.15;;
62977;SDS011;49073;42.352;23.808;2023-08-24T10:52:26;1.13;;;1.08;;
62977;SDS011;49073;42.352;23.808;2023-08-24T10:55:30;2.30;;;1.23;;
62977;SDS011;49073;42.352;23.808;2023-08-24T10:58:35;1.58;;;1.48;;
62977;SDS011;49073;42.352;23.808;2023-08-24T11:01:43;2.72;;;1.52;;
62977;SDS011;49073;42.352;23.808;2023-08-24T11:05:12;0.98;;;0.98;;
62977;SDS011;49073;42.352;23.808;2023-08-24T11:08:16;1.73;;;1.63;;
62977;SDS011;49073;42.352;23.808;2023-08-24T11:11:20;1.58;;;1.17;;
62977;SDS011;49073;42.352;23.808;2023-08-24T11:14:22;1.85;;;1.23;;
62977;SDS011;49073;42.352;23.808;2023-08-24T11:17:25;2.10;;;1.52;;
62977;SDS011;49073;42.352;23.808;2023-08-24T11:20:32;1.65;;;1.55;;
62977;SDS011;49073;42.352;23.808;2023-08-24T11:23:33;1.77;;;1.33;;
62977;SDS011;49073;42.352;23.808;2023-08-24T11:26:35;2.03;;;1.63;;
62977;SDS011;49073;42.352;23.808;2023-08-24T11:29:39;1.65;;;1.48;;
62977;SDS011;49073;42.352;23.808;2023-08-24T11:32:39;1.70;;;1.60;;
62977;SDS011;49073;42.352;23.808;2023-08-24T11:35:43;1.35;;;1.25;;
62977;SDS011;49073;42.352;23.808;2023-08-24T11:38:45;1.23;;;1.00;;
62977;SDS011;49073;42.352;23.808;2023-08-24T11:42:00;1.58;;;1.48;;
62977;SDS011;49073;42.352;23.808;2023-08-24T11:48:11;2.05;;;1.65;;
62977;SDS011;49073;42.352;23.808;2023-08-24T11:51:12;3.08;;;1.50;;
62977;SDS011;49073;42.352;23.808;2023-08-24T11:54:13;2.28;;;2.08;;
62977;SDS011;49073;42.352;23.808;2023-08-24T11:57:14;2.22;;;2.00;;
62977;SDS011;49073;42.352;23.808;2023-08-24T12:00:15;2.67;;;1.88;;
62977;SDS011;49073;42.352;23.808;2023-08-24T12:03:17;1.30;;;1.20;;
62977;SDS011;49073;42.352;23.808;2023-08-24T12:06:18;3.15;;;1.95;;
62977;SDS011;49073;42.352;23.808;2023-08-24T12:09:19;1.70;;;1.60;;
62977;SDS011;49073;42.352;23.808;2023-08-24T12:12:19;1.60;;;1.48;;
62977;SDS011;49073;42.352;23.808;2023-08-24T12:15:23;3.50;;;1.88;;
62977;SDS011;49073;42.352;23.808;2023-08-24T12:18:28;1.40;;;1.30;;
62977;SDS011;49073;42.352;23.808;2023-08-24T12:21:28;3.08;;;1.58;;
62977;SDS011;49073;42.352;23.808;2023-08-24T12:24:29;3.50;;;2.03;;
62977;SDS011;49073;42.352;23.808;2023-08-24T12:27:30;1.48;;;1.30;;
62977;SDS011;49073;42.352;23.808;2023-08-24T12:30:31;2.42;;;1.70;;
62977;SDS011;49073;42.352;23.808;2023-08-24T12:33:33;2.13;;;1.55;;
62977;SDS011;49073;42.352;23.808;2023-08-24T12:36:35;1.55;;;1.33;;
62977;SDS011;49073;42.352;23.808;2023-08-24T12:39:40;1.77;;;1.27;;
62977;SDS011;49073;42.352;23.808;2023-08-24T12:42:41;1.38;;;1.27;;
62977;SDS011;49073;42.352;23.808;2023-08-24T12:45:42;1.20;;;0.98;;
62977;SDS011;49073;42.352;23.808;2023-08-24T12:48:43;2.55;;;1.90;;
62977;SDS011;49073;42.352;23.808;2023-08-24T12:51:43;2.63;;;2.17;;
62977;SDS011;49073;42.352;23.808;2023-08-24T12:54:44;1.85;;;1.42;;
62977;SDS011;49073;42.352;23.808;2023-08-24T12:57:45;2.08;;;1.30;;
62977;SDS011;49073;42.352;23.808;2023-08-24T13:00:45;2.30;;;2.00;;
62977;SDS011;49073;42.352;23.808;2023-08-24T13:03:48;1.67;;;1.52;;
62977;SDS011;49073;42.352;23.808;2023-08-24T13:06:48;1.48;;;1.38;;
62977;SDS011;49073;42.352;23.808;2023-08-24T13:09:49;2.25;;;1.48;;
62977;SDS011;49073;42.352;23.808;2023-08-24T13:12:54;1.20;;;1.10;;
62977;SDS011;49073;42.352;23.808;2023-08-24T13:15:56;1.35;;;1.25;;
62977;SDS011;49073;42.352;23.808;2023-08-24T13:18:57;1.63;;;1.10;;
62977;SDS011;49073;42.352;23.808;2023-08-24T13:21:58;1.88;;;1.65;;
62977;SDS011;49073;42.352;23.808;2023-08-24T13:24:58;3.20;;;1.75;;
62977;SDS011;49073;42.352;23.808;2023-08-24T13:27:59;1.42;;;1.30;;
62977;SDS011;49073;42.352;23.808;2023-08-24T13:31:00;1.52;;;1.38;;
62977;SDS011;49073;42.352;23.808;2023-08-24T13:34:00;1.33;;;1.23;;
62977;SDS011;49073;42.352;23.808;2023-08-24T13:37:02;1.13;;;1.05;;
62977;SDS011;49073;42.352;23.808;2023-08-24T13:40:04;2.15;;;1.33;;
62977;SDS011;49073;42.352;23.808;2023-08-24T13:43:05;1.83;;;1.50;;
62977;SDS011;49073;42.352;23.808;2023-08-24T13:46:06;1.70;;;1.20;;
62977;SDS011;49073;42.352;23.808;2023-08-24T13:49:07;1.42;;;1.33;;
62977;SDS011;49073;42.352;23.808;2023-08-24T13:52:08;1.83;;;1.38;;
62977;SDS011;49073;42.352;23.808;2023-08-24T13:55:09;1.55;;;1.40;;
62977;SDS011;49073;42.352;23.808;2023-08-24T13:58:09;1.60;;;1.50;;
62977;SDS011;49073;42.352;23.808;2023-08-24T14:01:11;1.58;;;1.35;;
62977;SDS011;49073;42.352;23.808;2023-08-24T14:04:12;1.55;;;1.42;;
62977;SDS011;49073;42.352;23.808;2023-08-24T14:07:13;1.20;;;1.10;;
62977;SDS011;49073;42.352;23.808;2023-08-24T14:10:14;1.95;;;1.67;;
62977;SDS011;49073;42.352;23.808;2023-08-24T14:13:15;2.42;;;1.67;;
62977;SDS011;49073;42.352;23.808;2023-08-24T14:16:20;1.42;;;1.20;;
62977;SDS011;49073;42.352;23.808;2023-08-24T14:19:30;2.55;;;1.25;;
62977;SDS011;49073;42.352;23.808;2023-08-24T14:22:33;1.83;;;1.35;;
62977;SDS011;49073;42.352;23.808;2023-08-24T14:25:34;3.15;;;1.63;;
62977;SDS011;49073;42.352;23.808;2023-08-24T14:32:07;2.40;;;1.60;;
62977;SDS011;49073;42.352;23.808;2023-08-24T14:35:08;1.58;;;1.45;;
62977;SDS011;49073;42.352;23.808;2023-08-24T14:38:09;1.90;;;1.73;;
62977;SDS011;49073;42.352;23.808;2023-08-24T14:41:10;3.10;;;2.13;;
62977;SDS011;49073;42.352;23.808;2023-08-24T14:44:11;2.13;;;1.65;;
62977;SDS011;49073;42.352;23.808;2023-08-24T14:47:12;2.03;;;1.77;;
62977;SDS011;49073;42.352;23.808;2023-08-24T14:50:13;2.17;;;1.80;;
62977;SDS011;49073;42.352;23.808;2023-08-24T14:53:13;2.53;;;2.05;;
62977;SDS011;49073;42.352;23.808;2023-08-24T14:56:14;2.15;;;1.77;;
62977;SDS011;49073;42.352;23.808;2023-08-24T14:59:15;1.80;;;1.58;;
62977;SDS011;49073;42.352;23.808;2023-08-24T15:02:15;2.13;;;1.50;;
62977;SDS011;49073;42.352;23.808;2023-08-24T15:05:16;2.95;;;2.65;;
62977;SDS011;49073;42.352;23.808;2023-08-24T15:08:16;2.55;;;2.35;;
62977;SDS011;49073;42.352;23.808;2023-08-24T15:11:18;3.45;;;1.65;;
62977;SDS011;49073;42.352;23.808;2023-08-24T15:14:18;2.75;;;1.90;;
62977;SDS011;49073;42.352;23.808;2023-08-24T15:17:19;5.00;;;2.33;;
62977;SDS011;49073;42.352;23.808;2023-08-24T15:20:20;2.00;;;1.38;;
62977;SDS011;49073;42.352;23.808;2023-08-24T15:26:23;1.42;;;1.33;;
62977;SDS011;49073;42.352;23.808;2023-08-24T15:29:24;2.00;;;1.48;;
62977;SDS011;49073;42.352;23.808;2023-08-24T15:32:25;1.20;;;1.10;;
62977;SDS011;49073;42.352;23.808;2023-08-24T15:35:26;1.25;;;1.15;;
62977;SDS011;49073;42.352;23.808;2023-08-24T15:38:27;1.20;;;1.10;;
62977;SDS011;49073;42.352;23.808;2023-08-24T15:41:28;0.93;;;0.90;;
62977;SDS011;49073;42.352;23.808;2023-08-24T15:44:29;1.88;;;1.65;;
62977;SDS011;49073;42.352;23.808;2023-08-24T15:47:30;2.03;;;1.70;;
62977;SDS011;49073;42.352;23.808;2023-08-24T15:50:30;2.45;;;1.60;;
62977;SDS011;49073;42.352;23.808;2023-08-24T15:53:31;1.58;;;1.48;;
62977;SDS011;49073;42.352;23.808;2023-08-24T15:56:32;3.10;;;2.40;;
62977;SDS011;49073;42.352;23.808;2023-08-24T15:59:32;2.05;;;1.77;;
62977;SDS011;49073;42.352;23.808;2023-08-24T16:02:33;1.75;;;1.60;;
62977;SDS011;49073;42.352;23.808;2023-08-24T16:05:34;1.75;;;1.50;;
62977;SDS011;49073;42.352;23.808;2023-08-24T16:08:34;4.45;;;1.88;;
62977;SDS011;49073;42.352;23.808;2023-08-24T16:11:35;2.08;;;1.73;;
62977;SDS011;49073;42.352;23.808;2023-08-24T16:14:36;2.05;;;1.85;;
62977;SDS011;49073;42.352;23.808;2023-08-24T16:17:36;1.88;;;1.63;;
62977;SDS011;49073;42.352;23.808;2023-08-24T16:20:37;2.50;;;2.30;;
62977;SDS011;49073;42.352;23.808;2023-08-24T16:23:37;2.00;;;1.45;;
62977;SDS011;49073;42.352;23.808;2023-08-24T16:26:38;1.85;;;1.42;;
62977;SDS011;49073;42.352;23.808;2023-08-24T16:29:39;1.65;;;1.48;;
62977;SDS011;49073;42.352;23.808;2023-08-24T16:32:41;2.72;;;2.42;;
62977;SDS011;49073;42.352;23.808;2023-08-24T16:35:43;2.05;;;1.85;;
62977;SDS011;49073;42.352;23.808;2023-08-24T16:38:44;2.83;;;1.75;;
62977;SDS011;49073;42.352;23.808;2023-08-24T16:41:44;1.90;;;1.75;;
62977;SDS011;49073;42.352;23.808;2023-08-24T16:44:45;1.60;;;1.50;;
62977;SDS011;49073;42.352;23.808;2023-08-24T16:47:47;2.45;;;1.40;;
62977;SDS011;49073;42.352;23.808;2023-08-24T16:50:51;1.90;;;1.63;;
62977;SDS011;49073;42.352;23.808;2023-08-24T16:56:55;1.63;;;1.35;;
62977;SDS011;49073;42.352;23.808;2023-08-24T16:59:55;1.30;;;1.10;;
62977;SDS011;49073;42.352;23.808;2023-08-24T17:02:56;1.90;;;1.80;;
62977;SDS011;49073;42.352;23.808;2023-08-24T17:05:56;1.35;;;1.25;;
62977;SDS011;49073;42.352;23.808;2023-08-24T17:08:57;1.58;;;1.45;;
62977;SDS011;49073;42.352;23.808;2023-08-24T17:11:57;1.45;;;1.33;;
62977;SDS011;49073;42.352;23.808;2023-08-24T17:14:58;3.83;;;1.52;;
62977;SDS011;49073;42.352;23.808;2023-08-24T17:17:59;2.00;;;1.42;;
62977;SDS011;49073;42.352;23.808;2023-08-24T17:21:01;2.42;;;1.73;;
62977;SDS011;49073;42.352;23.808;2023-08-24T17:24:04;1.45;;;1.35;;
62977;SDS011;49073;42.352;23.808;2023-08-24T17:27:04;1.70;;;1.33;;
62977;SDS011;49073;42.352;23.808;2023-08-24T17:30:05;3.42;;;2.22;;
62977;SDS011;49073;42.352;23.808;2023-08-24T17:33:07;3.95;;;2.97;;
62977;SDS011;49073;42.352;23.808;2023-08-24T17:36:07;9.00;;;2.97;;
62977;SDS011;49073;42.352;23.808;2023-08-24T17:39:08;3.83;;;2.72;;
62977;SDS011;49073;42.352;23.808;2023-08-24T17:42:10;7.07;;;2.78;;
62977;SDS011;49073;42.352;23.808;2023-08-24T17:45:11;4.03;;;3.25;;
62977;SDS011;49073;42.352;23.808;2023-08-24T17:48:12;3.17;;;2.50;;
62977;SDS011;49073;42.352;23.808;2023-08-24T17:51:12;4.47;;;2.85;;
62977;SDS011;49073;42.352;23.808;2023-08-24T17:54:13;3.78;;;2.92;;
62977;SDS011;49073;42.352;23.808;2023-08-24T17:57:14;3.47;;;2.28;;
62977;SDS011;49073;42.352;23.808;2023-08-24T18:00:14;4.90;;;3.22;;
62977;SDS011;49073;42.352;23.808;2023-08-24T18:03:16;4.07;;;3.42;;
62977;SDS011;49073;42.352;23.808;2023-08-24T18:06:17;3.30;;;2.47;;
62977;SDS011;49073;42.352;23.808;2023-08-24T18:09:17;3.95;;;3.05;;